sensor_id;sensor_type;location;lat;lon;timestamp;P1;durP1;ratioP1;P2;durP2;ratioP2
4921;SDS011;16625;53.624;10.106;2023-02-18T00:01:24;28.40;;;5.20;;
4921;SDS011;16625;53.624;10.106;2023-02-18T00:03:51;7.23;;;3.63;;
4921;SDS011;16625;53.624;10.106;2023-02-18T00:06:19;34.83;;;4.47;;
4921;SDS011;16625;53.624;10.106;2023-02-18T00:08:47;11.23;;;3.50;;
4921;SDS011;16625;53.624;10.106;2023-02-18T00:11:15;10.60;;;3.43;;
4921;SDS011;16625;53.624;10.106;2023-02-18T00:13:47;28.10;;;4.70;;
4921;SDS011;16625;53.624;10.106;2023-02-18T00:16:16;8.53;;;3.93;;
4921;SDS011;16625;53.624;10.106;2023-02-18T00:18:43;16.00;;;5.40;;
4921;SDS011;16625;53.624;10.106;2023-02-18T00:21:10;26.23;;;4.20;;
4921;SDS011;16625;53.624;10.106;2023-02-18T00:23:39;11.83;;;4.10;;
4921;SDS011;16625;53.624;10.106;2023-02-18T00:26:07;20.87;;;4.17;;
4921;SDS011;16625;53.624;10.106;2023-02-18T00:28:36;16.27;;;4.23;;
4921;SDS011;16625;53.624;10.106;2023-02-18T00:31:08;24.20;;;4.50;;
4921;SDS011;16625;53.624;10.106;2023-02-18T00:33:36;15.47;;;3.10;;
4921;SDS011;16625;53.624;10.106;2023-02-18T00:36:04;25.03;;;4.63;;
4921;SDS011;16625;53.624;10.106;2023-02-18T00:38:33;31.90;;;4.43;;
4921;SDS011;16625;53.624;10.106;2023-02-18T00:41:03;11.37;;;3.37;;
4921;SDS011;16625;53.624;10.106;2023-02-18T00:43:30;8.93;;;3.13;;
4921;SDS011;16625;53.624;10.106;2023-02-18T00:45:59;20.37;;;3.47;;
4921;SDS011;16625;53.624;10.106;2023-02-18T00:48:28;16.43;;;4.87;;
4921;SDS011;16625;53.624;10.106;2023-02-18T00:50:54;18.40;;;5.27;;
4921;SDS011;16625;53.624;10.106;2023-02-18T00:53:21;14.13;;;4.37;;
4921;SDS011;16625;53.624;10.106;2023-02-18T00:55:48;23.93;;;4.90;;
4921;SDS011;16625;53.624;10.106;2023-02-18T00:58:15;25.20;;;4.80;;
4921;SDS011;16625;53.624;10.106;2023-02-18T01:00:43;32.87;;;5.50;;
4921;SDS011;16625;53.624;10.106;2023-02-18T01:03:10;11.63;;;4.30;;
4921;SDS011;16625;53.624;10.106;2023-02-18T01:05:39;20.43;;;4.73;;
4921;SDS011;16625;53.624;10.106;2023-02-18T01:08:07;17.80;;;4.50;;
4921;SDS011;16625;53.624;10.106;2023-02-18T01:10:35;19.67;;;4.80;;
4921;SDS011;16625;53.624;10.106;2023-02-18T01:13:05;17.80;;;5.13;;
4921;SDS011;16625;53.624;10.106;2023-02-18T01:15:32;10.43;;;3.40;;
4921;SDS011;16625;53.624;10.106;2023-02-18T01:17:59;30.77;;;3.80;;
4921;SDS011;16625;53.624;10.106;2023-02-18T01:20:26;14.20;;;4.60;;
4921;SDS011;16625;53.624;10.106;2023-02-18T01:22:55;22.27;;;6.07;;
4921;SDS011;16625;53.624;10.106;2023-02-18T01:25:22;14.73;;;3.93;;
4921;SDS011;16625;53.624;10.106;2023-02-18T01:27:49;34.40;;;4.43;;
4921;SDS011;16625;53.624;10.106;2023-02-18T01:30:16;19.17;;;5.97;;
4921;SDS011;16625;53.624;10.106;2023-02-18T01:32:44;8.97;;;3.13;;
4921;SDS011;16625;53.624;10.106;2023-02-18T01:35:12;21.50;;;3.87;;
4921;SDS011;16625;53.624;10.106;2023-02-18T01:37:40;29.43;;;4.37;;
4921;SDS011;16625;53.624;10.106;2023-02-18T01:40:10;35.47;;;4.37;;
4921;SDS011;16625;53.624;10.106;2023-02-18T01:42:39;18.20;;;5.73;;
4921;SDS011;16625;53.624;10.106;2023-02-18T01:48:16;10.53;;;2.60;;
4921;SDS011;16625;53.624;10.106;2023-02-18T01:50:47;20.57;;;4.63;;
4921;SDS011;16625;53.624;10.106;2023-02-18T01:53:17;25.20;;;4.90;;
4921;SDS011;16625;53.624;10.106;2023-02-18T01:55:49;18.17;;;3.43;;
4921;SDS011;16625;53.624;10.106;2023-02-18T01:58:16;20.13;;;4.50;;
4921;SDS011;16625;53.624;10.106;2023-02-18T02:00:43;25.30;;;4.37;;
4921;SDS011;16625;53.624;10.106;2023-02-18T02:03:10;23.37;;;4.90;;
4921;SDS011;16625;53.624;10.106;2023-02-18T02:05:37;18.37;;;5.73;;
4921;SDS011;16625;53.624;10.106;2023-02-18T02:08:04;16.47;;;4.77;;
4921;SDS011;16625;53.624;10.106;2023-02-18T02:10:35;16.20;;;4.20;;
4921;SDS011;16625;53.624;10.106;2023-02-18T02:13:11;41.80;;;4.73;;
4921;SDS011;16625;53.624;10.106;2023-02-18T02:15:45;15.13;;;3.03;;
4921;SDS011;16625;53.624;10.106;2023-02-18T02:18:34;28.50;;;5.73;;
4921;SDS011;16625;53.624;10.106;2023-02-18T02:24:27;13.87;;;3.30;;
4921;SDS011;16625;53.624;10.106;2023-02-18T02:27:24;28.43;;;5.30;;
4921;SDS011;16625;53.624;10.106;2023-02-18T02:30:06;26.60;;;4.33;;
4921;SDS011;16625;53.624;10.106;2023-02-18T02:35:53;22.73;;;4.13;;
4921;SDS011;16625;53.624;10.106;2023-02-18T02:38:25;18.87;;;3.50;;
4921;SDS011;16625;53.624;10.106;2023-02-18T02:41:02;23.40;;;5.20;;
4921;SDS011;16625;53.624;10.106;2023-02-18T02:43:38;15.17;;;4.33;;
4921;SDS011;16625;53.624;10.106;2023-02-18T02:46:14;9.37;;;3.30;;
4921;SDS011;16625;53.624;10.106;2023-02-18T02:48:48;26.20;;;5.73;;
4921;SDS011;16625;53.624;10.106;2023-02-18T02:51:24;20.90;;;4.43;;
4921;SDS011;16625;53.624;10.106;2023-02-18T02:53:56;17.40;;;3.57;;
4921;SDS011;16625;53.624;10.106;2023-02-18T02:56:35;20.43;;;3.50;;
4921;SDS011;16625;53.624;10.106;2023-02-18T02:59:03;16.13;;;4.33;;
4921;SDS011;16625;53.624;10.106;2023-02-18T03:01:35;13.20;;;3.23;;
4921;SDS011;16625;53.624;10.106;2023-02-18T03:04:13;14.40;;;3.67;;
4921;SDS011;16625;53.624;10.106;2023-02-18T03:06:58;10.10;;;3.43;;
4921;SDS011;16625;53.624;10.106;2023-02-18T03:09:39;18.23;;;5.33;;
4921;SDS011;16625;53.624;10.106;2023-02-18T03:12:18;34.17;;;5.10;;
4921;SDS011;16625;53.624;10.106;2023-02-18T03:14:57;9.50;;;3.33;;
4921;SDS011;16625;53.624;10.106;2023-02-18T03:17:30;14.53;;;3.60;;
4921;SDS011;16625;53.624;10.106;2023-02-18T03:20:03;16.93;;;4.10;;
4921;SDS011;16625;53.624;10.106;2023-02-18T03:22:36;19.63;;;2.73;;
4921;SDS011;16625;53.624;10.106;2023-02-18T03:25:06;7.70;;;3.00;;
4921;SDS011;16625;53.624;10.106;2023-02-18T03:27:36;25.70;;;4.07;;
4921;SDS011;16625;53.624;10.106;2023-02-18T03:30:06;24.73;;;4.60;;
4921;SDS011;16625;53.624;10.106;2023-02-18T03:32:38;12.33;;;4.80;;
4921;SDS011;16625;53.624;10.106;2023-02-18T03:35:06;18.17;;;4.40;;
4921;SDS011;16625;53.624;10.106;2023-02-18T03:37:38;15.60;;;4.03;;
4921;SDS011;16625;53.624;10.106;2023-02-18T03:40:08;19.33;;;2.83;;
4921;SDS011;16625;53.624;10.106;2023-02-18T03:42:37;13.80;;;3.27;;
4921;SDS011;16625;53.624;10.106;2023-02-18T03:45:04;3.40;;;2.33;;
4921;SDS011;16625;53.624;10.106;2023-02-18T03:47:31;13.40;;;3.37;;
4921;SDS011;16625;53.624;10.106;2023-02-18T03:49:58;7.00;;;2.77;;
4921;SDS011;16625;53.624;10.106;2023-02-18T03:52:25;21.87;;;2.80;;
4921;SDS011;16625;53.624;10.106;2023-02-18T03:54:53;8.53;;;2.83;;
4921;SDS011;16625;53.624;10.106;2023-02-18T03:57:23;10.40;;;3.80;;
4921;SDS011;16625;53.624;10.106;2023-02-18T03:59:50;11.73;;;3.30;;
4921;SDS011;16625;53.624;10.106;2023-02-18T04:02:16;7.43;;;2.83;;
4921;SDS011;16625;53.624;10.106;2023-02-18T04:04:43;13.53;;;3.37;;
4921;SDS011;16625;53.624;10.106;2023-02-18T04:07:10;22.07;;;3.43;;
4921;SDS011;16625;53.624;10.106;2023-02-18T04:09:37;14.90;;;4.30;;
4921;SDS011;16625;53.624;10.106;2023-02-18T04:12:06;12.10;;;2.60;;
4921;SDS011;16625;53.624;10.106;2023-02-18T04:14:33;5.23;;;2.67;;
4921;SDS011;16625;53.624;10.106;2023-02-18T04:17:00;13.70;;;3.30;;
4921;SDS011;16625;53.624;10.106;2023-02-18T04:19:27;20.13;;;4.53;;
4921;SDS011;16625;53.624;10.106;2023-02-18T04:21:54;11.23;;;3.37;;
4921;SDS011;16625;53.624;10.106;2023-02-18T04:24:20;28.97;;;4.80;;
4921;SDS011;16625;53.624;10.106;2023-02-18T04:26:47;7.70;;;2.60;;
4921;SDS011;16625;53.624;10.106;2023-02-18T04:29:16;11.13;;;2.23;;
4921;SDS011;16625;53.624;10.106;2023-02-18T04:31:43;22.73;;;5.90;;
4921;SDS011;16625;53.624;10.106;2023-02-18T04:34:09;12.20;;;2.97;;
4921;SDS011;16625;53.624;10.106;2023-02-18T04:36:36;18.50;;;3.00;;
4921;SDS011;16625;53.624;10.106;2023-02-18T04:39:03;14.23;;;3.10;;
4921;SDS011;16625;53.624;10.106;2023-02-18T04:41:30;4.73;;;2.60;;
4921;SDS011;16625;53.624;10.106;2023-02-18T04:43:57;16.77;;;4.00;;
4921;SDS011;16625;53.624;10.106;2023-02-18T04:46:26;10.10;;;2.97;;
4921;SDS011;16625;53.624;10.106;2023-02-18T04:48:53;14.37;;;3.20;;
4921;SDS011;16625;53.624;10.106;2023-02-18T04:51:20;15.70;;;3.43;;
4921;SDS011;16625;53.624;10.106;2023-02-18T04:53:47;10.47;;;3.53;;
4921;SDS011;16625;53.624;10.106;2023-02-18T04:56:13;20.00;;;4.73;;
4921;SDS011;16625;53.624;10.106;2023-02-18T04:58:40;9.23;;;2.77;;
4921;SDS011;16625;53.624;10.106;2023-02-18T05:01:07;6.63;;;2.50;;
4921;SDS011;16625;53.624;10.106;2023-02-18T05:03:35;12.93;;;3.07;;
4921;SDS011;16625;53.624;10.106;2023-02-18T05:06:02;16.10;;;2.70;;
4921;SDS011;16625;53.624;10.106;2023-02-18T05:08:30;6.23;;;3.80;;
4921;SDS011;16625;53.624;10.106;2023-02-18T05:10:56;7.80;;;2.23;;
4921;SDS011;16625;53.624;10.106;2023-02-18T05:13:23;9.30;;;2.90;;
4921;SDS011;16625;53.624;10.106;2023-02-18T05:15:50;6.93;;;2.07;;
4921;SDS011;16625;53.624;10.106;2023-02-18T05:18:17;22.83;;;3.47;;
4921;SDS011;16625;53.624;10.106;2023-02-18T05:20:46;9.43;;;2.73;;
4921;SDS011;16625;53.624;10.106;2023-02-18T05:23:12;11.77;;;2.90;;
4921;SDS011;16625;53.624;10.106;2023-02-18T05:25:39;12.87;;;4.10;;
4921;SDS011;16625;53.624;10.106;2023-02-18T05:28:06;10.60;;;3.20;;
4921;SDS011;16625;53.624;10.106;2023-02-18T05:30:33;18.73;;;2.80;;
4921;SDS011;16625;53.624;10.106;2023-02-18T05:33:00;8.77;;;2.40;;
4921;SDS011;16625;53.624;10.106;2023-02-18T05:35:27;4.00;;;2.17;;
4921;SDS011;16625;53.624;10.106;2023-02-18T05:37:55;10.40;;;3.00;;
4921;SDS011;16625;53.624;10.106;2023-02-18T05:40:22;7.83;;;3.10;;
4921;SDS011;16625;53.624;10.106;2023-02-18T05:42:49;12.07;;;2.77;;
4921;SDS011;16625;53.624;10.106;2023-02-18T05:45:16;14.23;;;2.87;;
4921;SDS011;16625;53.624;10.106;2023-02-18T05:47:43;8.33;;;2.43;;
4921;SDS011;16625;53.624;10.106;2023-02-18T05:50:10;14.70;;;3.50;;
4921;SDS011;16625;53.624;10.106;2023-02-18T05:52:37;10.80;;;2.57;;
4921;SDS011;16625;53.624;10.106;2023-02-18T05:55:05;8.83;;;3.20;;
4921;SDS011;16625;53.624;10.106;2023-02-18T05:57:33;6.60;;;2.50;;
4921;SDS011;16625;53.624;10.106;2023-02-18T05:59:59;6.50;;;2.23;;
4921;SDS011;16625;53.624;10.106;2023-02-18T06:02:26;12.60;;;3.23;;
4921;SDS011;16625;53.624;10.106;2023-02-18T06:04:53;13.53;;;2.97;;
4921;SDS011;16625;53.624;10.106;2023-02-18T06:07:20;5.77;;;2.50;;
4921;SDS011;16625;53.624;10.106;2023-02-18T06:09:47;9.27;;;2.57;;
4921;SDS011;16625;53.624;10.106;2023-02-18T06:12:16;18.03;;;3.33;;
4921;SDS011;16625;53.624;10.106;2023-02-18T06:14:43;18.37;;;3.20;;
4921;SDS011;16625;53.624;10.106;2023-02-18T06:17:10;10.00;;;3.17;;
4921;SDS011;16625;53.624;10.106;2023-02-18T06:19:38;12.77;;;4.03;;
4921;SDS011;16625;53.624;10.106;2023-02-18T06:22:05;10.40;;;3.40;;
4921;SDS011;16625;53.624;10.106;2023-02-18T06:24:32;12.50;;;3.30;;
4921;SDS011;16625;53.624;10.106;2023-02-18T06:26:59;19.07;;;3.40;;
4921;SDS011;16625;53.624;10.106;2023-02-18T06:29:27;14.70;;;3.47;;
4921;SDS011;16625;53.624;10.106;2023-02-18T06:31:55;7.80;;;3.47;;
4921;SDS011;16625;53.624;10.106;2023-02-18T06:34:25;14.13;;;3.83;;
4921;SDS011;16625;53.624;10.106;2023-02-18T06:36:54;8.70;;;2.50;;
4921;SDS011;16625;53.624;10.106;2023-02-18T06:39:21;13.83;;;3.60;;
4921;SDS011;16625;53.624;10.106;2023-02-18T06:41:48;12.47;;;2.53;;
4921;SDS011;16625;53.624;10.106;2023-02-18T06:44:15;13.43;;;3.17;;
4921;SDS011;16625;53.624;10.106;2023-02-18T06:46:43;7.37;;;3.00;;
4921;SDS011;16625;53.624;10.106;2023-02-18T06:49:10;6.47;;;2.63;;
4921;SDS011;16625;53.624;10.106;2023-02-18T06:51:37;5.13;;;2.33;;
4921;SDS011;16625;53.624;10.106;2023-02-18T06:54:04;6.80;;;2.90;;
4921;SDS011;16625;53.624;10.106;2023-02-18T06:56:31;6.93;;;2.67;;
4921;SDS011;16625;53.624;10.106;2023-02-18T06:58:58;6.73;;;2.50;;
4921;SDS011;16625;53.624;10.106;2023-02-18T07:01:25;7.90;;;3.10;;
4921;SDS011;16625;53.624;10.106;2023-02-18T07:03:55;11.27;;;2.30;;
4921;SDS011;16625;53.624;10.106;2023-02-18T07:06:22;6.30;;;2.40;;
4921;SDS011;16625;53.624;10.106;2023-02-18T07:08:49;8.43;;;2.57;;
4921;SDS011;16625;53.624;10.106;2023-02-18T07:11:16;13.90;;;2.40;;
4921;SDS011;16625;53.624;10.106;2023-02-18T07:13:43;9.73;;;2.60;;
4921;SDS011;16625;53.624;10.106;2023-02-18T07:16:10;10.93;;;2.90;;
4921;SDS011;16625;53.624;10.106;2023-02-18T07:18:37;13.27;;;3.00;;
4921;SDS011;16625;53.624;10.106;2023-02-18T07:21:05;8.63;;;2.60;;
4921;SDS011;16625;53.624;10.106;2023-02-18T07:23:32;11.57;;;2.67;;
4921;SDS011;16625;53.624;10.106;2023-02-18T07:26:03;9.57;;;3.30;;
4921;SDS011;16625;53.624;10.106;2023-02-18T07:28:31;7.00;;;2.80;;
4921;SDS011;16625;53.624;10.106;2023-02-18T07:30:58;8.83;;;5.70;;
4921;SDS011;16625;53.624;10.106;2023-02-18T07:33:25;6.73;;;2.30;;
4921;SDS011;16625;53.624;10.106;2023-02-18T07:35:52;9.93;;;2.77;;
4921;SDS011;16625;53.624;10.106;2023-02-18T07:38:21;2.73;;;2.10;;
4921;SDS011;16625;53.624;10.106;2023-02-18T07:40:49;13.27;;;3.07;;
4921;SDS011;16625;53.624;10.106;2023-02-18T07:43:16;7.17;;;2.90;;
4921;SDS011;16625;53.624;10.106;2023-02-18T07:45:44;13.53;;;3.30;;
4921;SDS011;16625;53.624;10.106;2023-02-18T07:48:11;6.47;;;2.13;;
4921;SDS011;16625;53.624;10.106;2023-02-18T07:50:38;23.53;;;5.17;;
4921;SDS011;16625;53.624;10.106;2023-02-18T07:53:08;7.60;;;3.93;;
4921;SDS011;16625;53.624;10.106;2023-02-18T07:55:37;10.80;;;2.97;;
4921;SDS011;16625;53.624;10.106;2023-02-18T07:58:17;11.57;;;2.60;;
4921;SDS011;16625;53.624;10.106;2023-02-18T08:00:45;11.97;;;3.80;;
4921;SDS011;16625;53.624;10.106;2023-02-18T08:03:13;9.10;;;3.30;;
4921;SDS011;16625;53.624;10.106;2023-02-18T08:05:41;11.03;;;2.73;;
4921;SDS011;16625;53.624;10.106;2023-02-18T08:08:09;15.30;;;3.07;;
4921;SDS011;16625;53.624;10.106;2023-02-18T08:10:40;21.10;;;4.23;;
4921;SDS011;16625;53.624;10.106;2023-02-18T08:13:07;19.30;;;3.63;;
4921;SDS011;16625;53.624;10.106;2023-02-18T08:15:34;8.13;;;3.47;;
4921;SDS011;16625;53.624;10.106;2023-02-18T08:18:01;7.10;;;3.33;;
4921;SDS011;16625;53.624;10.106;2023-02-18T08:20:29;13.33;;;3.53;;
4921;SDS011;16625;53.624;10.106;2023-02-18T08:22:56;15.27;;;4.10;;
4921;SDS011;16625;53.624;10.106;2023-02-18T08:25:23;14.17;;;4.50;;
4921;SDS011;16625;53.624;10.106;2023-02-18T08:27:51;11.50;;;4.60;;
4921;SDS011;16625;53.624;10.106;2023-02-18T08:30:18;17.57;;;6.10;;
4921;SDS011;16625;53.624;10.106;2023-02-18T08:32:45;8.27;;;3.40;;
4921;SDS011;16625;53.624;10.106;2023-02-18T08:35:12;13.33;;;3.43;;
4921;SDS011;16625;53.624;10.106;2023-02-18T08:37:39;9.70;;;3.27;;
4921;SDS011;16625;53.624;10.106;2023-02-18T08:40:08;5.00;;;2.80;;
4921;SDS011;16625;53.624;10.106;2023-02-18T08:42:36;12.97;;;3.47;;
4921;SDS011;16625;53.624;10.106;2023-02-18T08:45:04;13.70;;;3.67;;
4921;SDS011;16625;53.624;10.106;2023-02-18T08:47:32;15.00;;;4.40;;
4921;SDS011;16625;53.624;10.106;2023-02-18T08:49:59;6.00;;;2.50;;
4921;SDS011;16625;53.624;10.106;2023-02-18T08:52:27;9.20;;;3.30;;
4921;SDS011;16625;53.624;10.106;2023-02-18T08:54:54;9.30;;;3.50;;
4921;SDS011;16625;53.624;10.106;2023-02-18T08:57:22;9.60;;;3.87;;
4921;SDS011;16625;53.624;10.106;2023-02-18T08:59:49;9.03;;;3.30;;
4921;SDS011;16625;53.624;10.106;2023-02-18T09:02:18;7.53;;;3.53;;
4921;SDS011;16625;53.624;10.106;2023-02-18T09:04:45;12.27;;;3.67;;
4921;SDS011;16625;53.624;10.106;2023-02-18T09:07:12;5.20;;;2.93;;
4921;SDS011;16625;53.624;10.106;2023-02-18T09:09:39;6.63;;;2.77;;
4921;SDS011;16625;53.624;10.106;2023-02-18T09:12:06;6.40;;;2.80;;
4921;SDS011;16625;53.624;10.106;2023-02-18T09:14:33;18.43;;;3.77;;
4921;SDS011;16625;53.624;10.106;2023-02-18T09:17:00;6.30;;;3.07;;
4921;SDS011;16625;53.624;10.106;2023-02-18T09:19:28;12.13;;;3.23;;
4921;SDS011;16625;53.624;10.106;2023-02-18T09:21:57;5.27;;;3.30;;
4921;SDS011;16625;53.624;10.106;2023-02-18T09:24:24;6.13;;;3.67;;
4921;SDS011;16625;53.624;10.106;2023-02-18T09:26:50;9.20;;;4.37;;
4921;SDS011;16625;53.624;10.106;2023-02-18T09:29:18;11.73;;;3.87;;
4921;SDS011;16625;53.624;10.106;2023-02-18T09:31:45;11.10;;;4.10;;
4921;SDS011;16625;53.624;10.106;2023-02-18T09:34:12;17.93;;;4.00;;
4921;SDS011;16625;53.624;10.106;2023-02-18T09:36:40;16.57;;;5.23;;
4921;SDS011;16625;53.624;10.106;2023-02-18T09:39:07;15.57;;;7.40;;
4921;SDS011;16625;53.624;10.106;2023-02-18T09:41:41;36.43;;;8.20;;
4921;SDS011;16625;53.624;10.106;2023-02-18T09:44:12;28.23;;;7.70;;
4921;SDS011;16625;53.624;10.106;2023-02-18T09:46:46;15.57;;;7.03;;
4921;SDS011;16625;53.624;10.106;2023-02-18T09:49:17;13.50;;;7.23;;
4921;SDS011;16625;53.624;10.106;2023-02-18T09:51:50;11.70;;;7.40;;
4921;SDS011;16625;53.624;10.106;2023-02-18T09:54:19;13.93;;;6.97;;
4921;SDS011;16625;53.624;10.106;2023-02-18T09:56:46;14.33;;;7.13;;
4921;SDS011;16625;53.624;10.106;2023-02-18T09:59:16;9.27;;;7.30;;
4921;SDS011;16625;53.624;10.106;2023-02-18T10:01:49;17.50;;;9.13;;
4921;SDS011;16625;53.624;10.106;2023-02-18T10:04:19;11.53;;;6.90;;
4921;SDS011;16625;53.624;10.106;2023-02-18T10:06:50;13.10;;;7.60;;
4921;SDS011;16625;53.624;10.106;2023-02-18T10:09:19;10.30;;;7.00;;
4921;SDS011;16625;53.624;10.106;2023-02-18T10:11:51;11.57;;;6.30;;
4921;SDS011;16625;53.624;10.106;2023-02-18T10:14:21;12.73;;;6.43;;
4921;SDS011;16625;53.624;10.106;2023-02-18T10:16:50;12.63;;;6.93;;
4921;SDS011;16625;53.624;10.106;2023-02-18T10:19:24;13.60;;;8.07;;
4921;SDS011;16625;53.624;10.106;2023-02-18T10:21:56;11.40;;;7.70;;
4921;SDS011;16625;53.624;10.106;2023-02-18T10:24:26;12.23;;;7.00;;
4921;SDS011;16625;53.624;10.106;2023-02-18T10:26:56;10.63;;;7.03;;
4921;SDS011;16625;53.624;10.106;2023-02-18T10:29:25;11.40;;;7.03;;
4921;SDS011;16625;53.624;10.106;2023-02-18T10:31:54;10.87;;;7.30;;
4921;SDS011;16625;53.624;10.106;2023-02-18T10:34:29;11.40;;;7.73;;
4921;SDS011;16625;53.624;10.106;2023-02-18T10:37:07;26.80;;;14.50;;
4921;SDS011;16625;53.624;10.106;2023-02-18T10:39:53;19.93;;;10.80;;
4921;SDS011;16625;53.624;10.106;2023-02-18T10:42:30;15.27;;;8.97;;
4921;SDS011;16625;53.624;10.106;2023-02-18T10:45:07;12.60;;;7.87;;
4921;SDS011;16625;53.624;10.106;2023-02-18T10:47:42;14.10;;;9.00;;
4921;SDS011;16625;53.624;10.106;2023-02-18T10:50:18;13.30;;;8.77;;
4921;SDS011;16625;53.624;10.106;2023-02-18T10:52:56;11.23;;;6.30;;
4921;SDS011;16625;53.624;10.106;2023-02-18T10:55:34;9.93;;;7.27;;
4921;SDS011;16625;53.624;10.106;2023-02-18T10:58:03;9.57;;;6.47;;
4921;SDS011;16625;53.624;10.106;2023-02-18T11:00:48;11.00;;;8.27;;
4921;SDS011;16625;53.624;10.106;2023-02-18T11:03:16;13.40;;;9.13;;
4921;SDS011;16625;53.624;10.106;2023-02-18T11:05:46;12.40;;;8.00;;
4921;SDS011;16625;53.624;10.106;2023-02-18T11:08:17;12.20;;;8.23;;
4921;SDS011;16625;53.624;10.106;2023-02-18T11:10:47;12.87;;;8.33;;
4921;SDS011;16625;53.624;10.106;2023-02-18T11:13:16;9.57;;;7.50;;
4921;SDS011;16625;53.624;10.106;2023-02-18T11:15:55;12.03;;;8.30;;
4921;SDS011;16625;53.624;10.106;2023-02-18T11:18:29;10.53;;;7.40;;
4921;SDS011;16625;53.624;10.106;2023-02-18T11:21:02;11.97;;;7.40;;
4921;SDS011;16625;53.624;10.106;2023-02-18T11:23:32;12.03;;;7.93;;
4921;SDS011;16625;53.624;10.106;2023-02-18T11:26:13;11.40;;;8.37;;
4921;SDS011;16625;53.624;10.106;2023-02-18T11:28:42;13.10;;;8.43;;
4921;SDS011;16625;53.624;10.106;2023-02-18T11:31:15;14.17;;;9.33;;
4921;SDS011;16625;53.624;10.106;2023-02-18T11:33:47;15.07;;;8.70;;
4921;SDS011;16625;53.624;10.106;2023-02-18T11:36:18;11.40;;;8.27;;
4921;SDS011;16625;53.624;10.106;2023-02-18T11:38:51;18.70;;;10.23;;
4921;SDS011;16625;53.624;10.106;2023-02-18T11:41:21;14.00;;;8.90;;
4921;SDS011;16625;53.624;10.106;2023-02-18T11:43:56;13.00;;;9.73;;
4921;SDS011;16625;53.624;10.106;2023-02-18T11:46:26;15.10;;;8.97;;
4921;SDS011;16625;53.624;10.106;2023-02-18T11:48:53;12.23;;;7.73;;
4921;SDS011;16625;53.624;10.106;2023-02-18T11:51:22;13.43;;;9.00;;
4921;SDS011;16625;53.624;10.106;2023-02-18T11:53:59;14.87;;;8.60;;
4921;SDS011;16625;53.624;10.106;2023-02-18T11:56:29;13.63;;;9.70;;
4921;SDS011;16625;53.624;10.106;2023-02-18T11:58:59;11.43;;;8.13;;
4921;SDS011;16625;53.624;10.106;2023-02-18T12:01:35;11.57;;;7.87;;
4921;SDS011;16625;53.624;10.106;2023-02-18T12:04:10;14.53;;;8.23;;
4921;SDS011;16625;53.624;10.106;2023-02-18T12:06:42;9.03;;;5.40;;
4921;SDS011;16625;53.624;10.106;2023-02-18T12:09:19;11.03;;;7.40;;
4921;SDS011;16625;53.624;10.106;2023-02-18T12:11:52;9.53;;;7.30;;
4921;SDS011;16625;53.624;10.106;2023-02-18T12:14:22;6.80;;;4.50;;
4921;SDS011;16625;53.624;10.106;2023-02-18T12:17:06;5.60;;;3.50;;
4921;SDS011;16625;53.624;10.106;2023-02-18T12:20:00;4.13;;;2.97;;
4921;SDS011;16625;53.624;10.106;2023-02-18T12:22:41;3.73;;;2.60;;
4921;SDS011;16625;53.624;10.106;2023-02-18T12:28:06;2.67;;;1.67;;
4921;SDS011;16625;53.624;10.106;2023-02-18T12:30:46;2.63;;;1.83;;
4921;SDS011;16625;53.624;10.106;2023-02-18T12:33:33;2.40;;;2.20;;
4921;SDS011;16625;53.624;10.106;2023-02-18T12:36:12;7.30;;;2.43;;
4921;SDS011;16625;53.624;10.106;2023-02-18T12:39:02;4.73;;;2.60;;
4921;SDS011;16625;53.624;10.106;2023-02-18T12:44:30;5.13;;;2.60;;
4921;SDS011;16625;53.624;10.106;2023-02-18T12:47:05;12.33;;;2.30;;
4921;SDS011;16625;53.624;10.106;2023-02-18T12:52:50;6.30;;;2.40;;
4921;SDS011;16625;53.624;10.106;2023-02-18T12:55:40;7.87;;;2.87;;
4921;SDS011;16625;53.624;10.106;2023-02-18T12:58:25;9.50;;;2.80;;
4921;SDS011;16625;53.624;10.106;2023-02-18T13:01:08;4.03;;;2.60;;
4921;SDS011;16625;53.624;10.106;2023-02-18T13:07:06;5.50;;;3.03;;
4921;SDS011;16625;53.624;10.106;2023-02-18T13:09:46;11.03;;;2.37;;
4921;SDS011;16625;53.624;10.106;2023-02-18T13:12:25;4.40;;;2.77;;
4921;SDS011;16625;53.624;10.106;2023-02-18T13:15:00;7.63;;;2.07;;
4921;SDS011;16625;53.624;10.106;2023-02-18T13:17:31;11.37;;;3.47;;
4921;SDS011;16625;53.624;10.106;2023-02-18T13:20:03;8.50;;;3.17;;
4921;SDS011;16625;53.624;10.106;2023-02-18T13:22:38;5.43;;;2.07;;
4921;SDS011;16625;53.624;10.106;2023-02-18T13:25:10;5.03;;;2.20;;
4921;SDS011;16625;53.624;10.106;2023-02-18T13:27:39;5.00;;;1.90;;
4921;SDS011;16625;53.624;10.106;2023-02-18T13:30:17;4.57;;;2.30;;
4921;SDS011;16625;53.624;10.106;2023-02-18T13:32:56;10.83;;;3.00;;
4921;SDS011;16625;53.624;10.106;2023-02-18T13:35:31;12.23;;;3.13;;
4921;SDS011;16625;53.624;10.106;2023-02-18T13:38:17;15.80;;;3.07;;
4921;SDS011;16625;53.624;10.106;2023-02-18T13:41:08;5.17;;;3.40;;
4921;SDS011;16625;53.624;10.106;2023-02-18T13:43:36;8.60;;;3.57;;
4921;SDS011;16625;53.624;10.106;2023-02-18T13:46:09;20.93;;;4.87;;
4921;SDS011;16625;53.624;10.106;2023-02-18T13:48:42;5.20;;;2.97;;
4921;SDS011;16625;53.624;10.106;2023-02-18T13:51:12;6.33;;;2.90;;
4921;SDS011;16625;53.624;10.106;2023-02-18T13:53:41;6.60;;;3.90;;
4921;SDS011;16625;53.624;10.106;2023-02-18T13:56:10;11.37;;;3.23;;
4921;SDS011;16625;53.624;10.106;2023-02-18T13:58:47;3.57;;;2.43;;
4921;SDS011;16625;53.624;10.106;2023-02-18T14:01:35;5.50;;;3.67;;
4921;SDS011;16625;53.624;10.106;2023-02-18T14:10:24;5.60;;;3.33;;
4921;SDS011;16625;53.624;10.106;2023-02-18T14:13:00;3.10;;;2.77;;
4921;SDS011;16625;53.624;10.106;2023-02-18T14:15:52;3.97;;;3.03;;
4921;SDS011;16625;53.624;10.106;2023-02-18T14:18:28;5.13;;;4.40;;
4921;SDS011;16625;53.624;10.106;2023-02-18T14:23:55;5.87;;;4.67;;
4921;SDS011;16625;53.624;10.106;2023-02-18T14:26:27;5.80;;;3.93;;
4921;SDS011;16625;53.624;10.106;2023-02-18T14:28:57;4.80;;;3.80;;
4921;SDS011;16625;53.624;10.106;2023-02-18T14:31:29;6.33;;;3.57;;
4921;SDS011;16625;53.624;10.106;2023-02-18T14:34:10;5.17;;;4.43;;
4921;SDS011;16625;53.624;10.106;2023-02-18T14:36:53;5.33;;;4.10;;
4921;SDS011;16625;53.624;10.106;2023-02-18T14:39:33;5.30;;;4.60;;
4921;SDS011;16625;53.624;10.106;2023-02-18T14:42:11;6.03;;;5.27;;
4921;SDS011;16625;53.624;10.106;2023-02-18T14:44:51;4.50;;;3.97;;
4921;SDS011;16625;53.624;10.106;2023-02-18T14:47:34;8.43;;;4.20;;
4921;SDS011;16625;53.624;10.106;2023-02-18T14:50:17;2.60;;;2.40;;
4921;SDS011;16625;53.624;10.106;2023-02-18T14:52:46;3.60;;;3.30;;
4921;SDS011;16625;53.624;10.106;2023-02-18T14:55:17;3.17;;;2.90;;
4921;SDS011;16625;53.624;10.106;2023-02-18T14:57:48;3.77;;;3.20;;
4921;SDS011;16625;53.624;10.106;2023-02-18T15:00:19;3.37;;;3.07;;
4921;SDS011;16625;53.624;10.106;2023-02-18T15:02:49;3.13;;;2.83;;
4921;SDS011;16625;53.624;10.106;2023-02-18T15:05:19;2.97;;;2.67;;
4921;SDS011;16625;53.624;10.106;2023-02-18T15:07:54;4.20;;;3.27;;
4921;SDS011;16625;53.624;10.106;2023-02-18T15:10:24;3.70;;;3.03;;
4921;SDS011;16625;53.624;10.106;2023-02-18T15:12:56;4.10;;;3.23;;
4921;SDS011;16625;53.624;10.106;2023-02-18T15:15:23;3.30;;;3.00;;
4921;SDS011;16625;53.624;10.106;2023-02-18T15:17:51;2.80;;;2.60;;
4921;SDS011;16625;53.624;10.106;2023-02-18T15:20:19;4.40;;;3.90;;
4921;SDS011;16625;53.624;10.106;2023-02-18T15:22:46;3.70;;;3.40;;
4921;SDS011;16625;53.624;10.106;2023-02-18T15:25:14;3.53;;;3.00;;
4921;SDS011;16625;53.624;10.106;2023-02-18T15:27:41;3.60;;;2.70;;
4921;SDS011;16625;53.624;10.106;2023-02-18T15:30:20;5.13;;;3.80;;